aviador You're here:

KQKG Decoded Metar

in
Report Time2017-07-21 07:55:00
UTC Time2017-07-21 08:39:15
Flight Rules vfr VFR
WindCalm
Visibility9999 m
Phenomena:N/A
Clouds:Few 110 Hf
Broken 150 Hf
Broken 200 Hf
Expected CloudBase > 6,800 ft AGL from Temp-Dew spread
Ceiling15,000 ft
Temp25°C
Dew Point08°C (34% RH)
AAT24.5°C
QNH1015 hPa
Raw Report
METAR KQKG 210755Z AUTO 00000KT 9999 FEW110 BKN150 BKN200 25/08 A2997
RMK AO2 SLP075 WND DATA ESTMD T02540081 $=

Extra information for KQKG:More info

Social comments